sensor_id;sensor_type;location;lat;lon;timestamp;pressure;altitude;pressure_sealevel;temperature;humidity
4199;BME280;2113;50.946;14.610;2023-01-28T00:01:36;97663.19;;;4.32;59.86
4199;BME280;2113;50.946;14.610;2023-01-28T00:04:05;97662.22;;;4.59;59.11
4199;BME280;2113;50.946;14.610;2023-01-28T00:06:33;97658.72;;;4.77;59.20
4199;BME280;2113;50.946;14.610;2023-01-28T00:09:02;97660.56;;;4.43;58.77
4199;BME280;2113;50.946;14.610;2023-01-28T00:11:31;97668.38;;;3.86;60.62
4199;BME280;2113;50.946;14.610;2023-01-28T00:13:59;97664.94;;;4.13;60.18
4199;BME280;2113;50.946;14.610;2023-01-28T00:16:30;97659.78;;;4.22;60.16
4199;BME280;2113;50.946;14.610;2023-01-28T00:19:00;97654.56;;;4.36;60.02
4199;BME280;2113;50.946;14.610;2023-01-28T00:21:28;97658.69;;;4.89;58.87
4199;BME280;2113;50.946;14.610;2023-01-28T00:23:57;97659.75;;;4.28;59.34
4199;BME280;2113;50.946;14.610;2023-01-28T00:26:25;97661.22;;;4.94;57.95
4199;BME280;2113;50.946;14.610;2023-01-28T00:28:54;97659.59;;;4.71;58.86
4199;BME280;2113;50.946;14.610;2023-01-28T00:31:24;97658.78;;;4.62;59.64
4199;BME280;2113;50.946;14.610;2023-01-28T00:33:54;97651.00;;;4.76;58.49
4199;BME280;2113;50.946;14.610;2023-01-28T00:36:25;97648.16;;;5.23;57.27
4199;BME280;2113;50.946;14.610;2023-01-28T00:38:55;97650.91;;;4.99;57.35
4199;BME280;2113;50.946;14.610;2023-01-28T00:41:25;97663.09;;;4.55;59.45
4199;BME280;2113;50.946;14.610;2023-01-28T00:43:57;97655.00;;;5.30;58.20
4199;BME280;2113;50.946;14.610;2023-01-28T00:46:28;97652.72;;;4.78;58.03
4199;BME280;2113;50.946;14.610;2023-01-28T00:48:57;97649.13;;;5.08;58.13
4199;BME280;2113;50.946;14.610;2023-01-28T00:51:26;97641.25;;;5.28;57.28
4199;BME280;2113;50.946;14.610;2023-01-28T00:53:55;97640.75;;;4.62;58.88
4199;BME280;2113;50.946;14.610;2023-01-28T00:56:23;97652.91;;;4.24;60.21
4199;BME280;2113;50.946;14.610;2023-01-28T00:58:52;97646.78;;;4.58;59.59
4199;BME280;2113;50.946;14.610;2023-01-28T01:01:22;97659.81;;;3.75;61.55
4199;BME280;2113;50.946;14.610;2023-01-28T01:03:51;97654.56;;;4.36;60.34
4199;BME280;2113;50.946;14.610;2023-01-28T01:06:24;97658.91;;;4.17;60.52
4199;BME280;2113;50.946;14.610;2023-01-28T01:08:54;97656.09;;;4.88;58.99
4199;BME280;2113;50.946;14.610;2023-01-28T01:11:22;97658.09;;;3.75;61.17
4199;BME280;2113;50.946;14.610;2023-01-28T01:13:53;97653.75;;;4.22;60.18
4199;BME280;2113;50.946;14.610;2023-01-28T01:16:25;97654.56;;;4.39;60.10
4199;BME280;2113;50.946;14.610;2023-01-28T01:18:55;97664.94;;;3.78;61.65
4199;BME280;2113;50.946;14.610;2023-01-28T01:21:25;97668.31;;;3.30;62.64
4199;BME280;2113;50.946;14.610;2023-01-28T01:23:56;97670.94;;;3.89;60.96
4199;BME280;2113;50.946;14.610;2023-01-28T01:26:24;97668.38;;;3.50;62.75
4199;BME280;2113;50.946;14.610;2023-01-28T01:28:53;97659.78;;;3.76;61.21
4199;BME280;2113;50.946;14.610;2023-01-28T01:31:22;97670.88;;;3.24;63.25
4199;BME280;2113;50.946;14.610;2023-01-28T01:33:51;97663.22;;;3.95;62.20
4199;BME280;2113;50.946;14.610;2023-01-28T01:36:20;97674.38;;;3.56;62.33
4199;BME280;2113;50.946;14.610;2023-01-28T01:38:52;97678.63;;;3.32;62.90
4199;BME280;2113;50.946;14.610;2023-01-28T01:41:28;97674.34;;;3.32;63.35
4199;BME280;2113;50.946;14.610;2023-01-28T01:43:58;97673.44;;;3.23;64.83
4199;BME280;2113;50.946;14.610;2023-01-28T01:46:32;97675.19;;;3.38;63.34
4199;BME280;2113;50.946;14.610;2023-01-28T01:49:07;97675.22;;;3.56;62.95
4199;BME280;2113;50.946;14.610;2023-01-28T01:51:40;97678.63;;;3.29;63.24
4199;BME280;2113;50.946;14.610;2023-01-28T01:54:10;97669.94;;;2.84;64.83
4199;BME280;2113;50.946;14.610;2023-01-28T01:56:42;97667.44;;;3.21;63.39
4199;BME280;2113;50.946;14.610;2023-01-28T01:59:14;97672.66;;;3.68;62.56
4199;BME280;2113;50.946;14.610;2023-01-28T02:01:44;97676.88;;;3.26;63.16
4199;BME280;2113;50.946;14.610;2023-01-28T02:04:18;97673.41;;;2.95;64.71
4199;BME280;2113;50.946;14.610;2023-01-28T02:06:50;97683.72;;;3.15;63.96
4199;BME280;2113;50.946;14.610;2023-01-28T02:09:22;97680.34;;;4.18;62.08
4199;BME280;2113;50.946;14.610;2023-01-28T02:11:54;97676.91;;;4.26;60.78
4199;BME280;2113;50.946;14.610;2023-01-28T02:14:27;97670.03;;;4.36;60.26
4199;BME280;2113;50.946;14.610;2023-01-28T02:16:58;97675.22;;;3.99;60.08
4199;BME280;2113;50.946;14.610;2023-01-28T02:19:32;97683.75;;;3.24;62.44
4199;BME280;2113;50.946;14.610;2023-01-28T02:25:01;97682.94;;;3.42;62.18
4199;BME280;2113;50.946;14.610;2023-01-28T02:27:36;97676.94;;;3.60;61.07
4199;BME280;2113;50.946;14.610;2023-01-28T02:30:14;97677.81;;;3.56;61.09
4199;BME280;2113;50.946;14.610;2023-01-28T02:32:52;97676.06;;;3.49;61.33
4199;BME280;2113;50.946;14.610;2023-01-28T02:35:28;97676.03;;;3.30;62.37
4199;BME280;2113;50.946;14.610;2023-01-28T02:38:02;97673.47;;;3.24;61.66
4199;BME280;2113;50.946;14.610;2023-01-28T02:40:36;97681.22;;;3.44;62.14
4199;BME280;2113;50.946;14.610;2023-01-28T02:43:32;97676.06;;;4.10;60.26
4199;BME280;2113;50.946;14.610;2023-01-28T02:46:11;97676.06;;;4.03;59.52
4199;BME280;2113;50.946;14.610;2023-01-28T02:48:58;97675.22;;;3.68;59.88
4199;BME280;2113;50.946;14.610;2023-01-28T02:51:34;97684.66;;;3.72;60.15
4199;BME280;2113;50.946;14.610;2023-01-28T02:54:11;97672.66;;;3.68;60.64
4199;BME280;2113;50.946;14.610;2023-01-28T02:56:44;97673.53;;;3.83;60.91
4199;BME280;2113;50.946;14.610;2023-01-28T02:59:23;97676.00;;;3.15;62.37
4199;BME280;2113;50.946;14.610;2023-01-28T03:02:12;97682.09;;;3.46;61.70
4199;BME280;2113;50.946;14.610;2023-01-28T03:04:49;97678.56;;;4.43;58.50
4199;BME280;2113;50.946;14.610;2023-01-28T03:07:23;97667.50;;;4.08;59.48
4199;BME280;2113;50.946;14.610;2023-01-28T03:09:53;97676.06;;;3.55;60.49
4199;BME280;2113;50.946;14.610;2023-01-28T03:12:26;97676.00;;;3.10;62.30
4199;BME280;2113;50.946;14.610;2023-01-28T03:15:16;97676.91;;;3.34;61.05
4199;BME280;2113;50.946;14.610;2023-01-28T03:18:07;97678.66;;;3.44;61.86
4199;BME280;2113;50.946;14.610;2023-01-28T03:21:01;97684.66;;;3.54;60.48
4199;BME280;2113;50.946;14.610;2023-01-28T03:23:53;97687.25;;;4.02;60.07
4199;BME280;2113;50.946;14.610;2023-01-28T03:26:44;97674.22;;;4.65;57.90
4199;BME280;2113;50.946;14.610;2023-01-28T03:29:33;97679.50;;;3.97;59.77
4199;BME280;2113;50.946;14.610;2023-01-28T03:32:20;97693.22;;;4.25;59.46
4199;BME280;2113;50.946;14.610;2023-01-28T03:35:09;97693.22;;;3.56;60.67
4199;BME280;2113;50.946;14.610;2023-01-28T03:37:56;97702.69;;;3.79;59.53
4199;BME280;2113;50.946;14.610;2023-01-28T03:40:27;97692.34;;;3.42;60.99
4199;BME280;2113;50.946;14.610;2023-01-28T03:42:55;97700.03;;;3.29;61.38
4199;BME280;2113;50.946;14.610;2023-01-28T03:45:34;97703.50;;;3.56;60.49
4199;BME280;2113;50.946;14.610;2023-01-28T03:48:04;97703.47;;;4.39;58.27
4199;BME280;2113;50.946;14.610;2023-01-28T03:50:34;97708.66;;;3.93;59.06
4199;BME280;2113;50.946;14.610;2023-01-28T03:53:02;97706.13;;;3.82;58.87
4199;BME280;2113;50.946;14.610;2023-01-28T03:55:47;97705.22;;;4.06;59.01
4199;BME280;2113;50.946;14.610;2023-01-28T03:58:17;97702.63;;;4.31;57.75
4199;BME280;2113;50.946;14.610;2023-01-28T04:00:46;97712.97;;;4.19;58.67
4199;BME280;2113;50.946;14.610;2023-01-28T04:03:17;97706.09;;;4.01;58.77
4199;BME280;2113;50.946;14.610;2023-01-28T04:06:07;97716.03;;;2.58;62.18
4199;BME280;2113;50.946;14.610;2023-01-28T04:08:51;97713.72;;;3.22;60.62
4199;BME280;2113;50.946;14.610;2023-01-28T04:11:28;97715.38;;;3.02;61.39
4199;BME280;2113;50.946;14.610;2023-01-28T04:14:00;97712.63;;;2.60;62.23
4199;BME280;2113;50.946;14.610;2023-01-28T04:16:46;97715.44;;;3.23;61.36
4199;BME280;2113;50.946;14.610;2023-01-28T04:19:16;97711.19;;;3.36;60.37
4199;BME280;2113;50.946;14.610;2023-01-28T04:21:46;97713.66;;;2.94;61.49
4199;BME280;2113;50.946;14.610;2023-01-28T04:24:15;97716.38;;;3.68;60.21
4199;BME280;2113;50.946;14.610;2023-01-28T04:26:44;97722.19;;;2.90;61.42
4199;BME280;2113;50.946;14.610;2023-01-28T04:29:14;97726.84;;;2.07;63.84
4199;BME280;2113;50.946;14.610;2023-01-28T04:31:43;97721.69;;;2.06;64.60
4199;BME280;2113;50.946;14.610;2023-01-28T04:34:38;97724.00;;;3.19;62.36
4199;BME280;2113;50.946;14.610;2023-01-28T04:37:14;97727.44;;;3.27;60.42
4199;BME280;2113;50.946;14.610;2023-01-28T04:40:04;97726.53;;;3.07;61.52
4199;BME280;2113;50.946;14.610;2023-01-28T04:42:54;97722.34;;;3.55;60.39
4199;BME280;2113;50.946;14.610;2023-01-28T04:45:43;97734.03;;;2.61;61.85
4199;BME280;2113;50.946;14.610;2023-01-28T04:48:30;97743.47;;;2.69;61.18
4199;BME280;2113;50.946;14.610;2023-01-28T04:51:14;97735.06;;;3.03;61.51
4199;BME280;2113;50.946;14.610;2023-01-28T04:54:07;97742.53;;;2.49;62.47
4199;BME280;2113;50.946;14.610;2023-01-28T04:56:37;97740.81;;;2.51;62.42
4199;BME280;2113;50.946;14.610;2023-01-28T04:59:05;97737.66;;;3.06;61.53
4199;BME280;2113;50.946;14.610;2023-01-28T05:01:34;97752.13;;;2.88;61.17
4199;BME280;2113;50.946;14.610;2023-01-28T05:04:04;97740.13;;;2.83;61.60
4199;BME280;2113;50.946;14.610;2023-01-28T05:06:37;97740.22;;;3.09;60.40
4199;BME280;2113;50.946;14.610;2023-01-28T05:09:14;97748.63;;;2.68;61.49
4199;BME280;2113;50.946;14.610;2023-01-28T05:11:43;97751.06;;;2.49;62.90
4199;BME280;2113;50.946;14.610;2023-01-28T05:14:13;97752.97;;;2.84;61.30
4199;BME280;2113;50.946;14.610;2023-01-28T05:16:49;97753.16;;;3.27;60.99
4199;BME280;2113;50.946;14.610;2023-01-28T05:19:18;97755.75;;;3.40;59.77
4199;BME280;2113;50.946;14.610;2023-01-28T05:21:47;97763.06;;;2.50;61.61
4199;BME280;2113;50.946;14.610;2023-01-28T05:24:27;97761.28;;;2.40;62.16
4199;BME280;2113;50.946;14.610;2023-01-28T05:26:55;97755.34;;;2.52;62.52
4199;BME280;2113;50.946;14.610;2023-01-28T05:29:23;97766.19;;;2.09;63.99
4199;BME280;2113;50.946;14.610;2023-01-28T05:31:52;97759.94;;;3.10;60.94
4199;BME280;2113;50.946;14.610;2023-01-28T05:34:20;97763.25;;;2.81;62.01
4199;BME280;2113;50.946;14.610;2023-01-28T05:36:50;97760.28;;;2.21;63.91
4199;BME280;2113;50.946;14.610;2023-01-28T05:39:29;97767.34;;;2.53;62.65
4199;BME280;2113;50.946;14.610;2023-01-28T05:41:58;97763.00;;;2.40;62.52
4199;BME280;2113;50.946;14.610;2023-01-28T05:44:27;97765.97;;;1.82;63.59
4199;BME280;2113;50.946;14.610;2023-01-28T05:47:16;97768.72;;;2.06;63.63
4199;BME280;2113;50.946;14.610;2023-01-28T05:49:51;97766.50;;;2.55;62.16
4199;BME280;2113;50.946;14.610;2023-01-28T05:52:55;97771.06;;;3.04;61.05
4199;BME280;2113;50.946;14.610;2023-01-28T05:55:31;97763.66;;;2.12;62.83
4199;BME280;2113;50.946;14.610;2023-01-28T05:58:00;97762.13;;;2.41;62.85
4199;BME280;2113;50.946;14.610;2023-01-28T06:00:28;97762.94;;;2.35;62.57
4199;BME280;2113;50.946;14.610;2023-01-28T06:02:58;97771.19;;;1.94;63.52
4199;BME280;2113;50.946;14.610;2023-01-28T06:05:26;97767.22;;;2.34;63.02
4199;BME280;2113;50.946;14.610;2023-01-28T06:07:55;97766.19;;;2.09;63.66
4199;BME280;2113;50.946;14.610;2023-01-28T06:10:24;97773.28;;;2.43;62.54
4199;BME280;2113;50.946;14.610;2023-01-28T06:12:55;97767.34;;;2.51;61.52
4199;BME280;2113;50.946;14.610;2023-01-28T06:15:50;97771.09;;;1.82;63.64
4199;BME280;2113;50.946;14.610;2023-01-28T06:18:24;97775.63;;;2.15;62.09
4199;BME280;2113;50.946;14.610;2023-01-28T06:20:53;97783.03;;;1.78;63.86
4199;BME280;2113;50.946;14.610;2023-01-28T06:23:21;97786.00;;;2.26;63.43
4199;BME280;2113;50.946;14.610;2023-01-28T06:25:52;97792.00;;;2.28;61.92
4199;BME280;2113;50.946;14.610;2023-01-28T06:28:24;97787.34;;;1.84;63.69
4199;BME280;2113;50.946;14.610;2023-01-28T06:30:52;97799.31;;;3.09;61.21
4199;BME280;2113;50.946;14.610;2023-01-28T06:33:21;97798.63;;;2.04;62.89
4199;BME280;2113;50.946;14.610;2023-01-28T06:35:50;97809.81;;;2.11;62.39
4199;BME280;2113;50.946;14.610;2023-01-28T06:38:19;97800.94;;;2.88;61.28
4199;BME280;2113;50.946;14.610;2023-01-28T06:40:50;97810.31;;;2.82;60.15
4199;BME280;2113;50.946;14.610;2023-01-28T06:43:19;97816.16;;;2.59;60.71
4199;BME280;2113;50.946;14.610;2023-01-28T06:45:49;97816.25;;;2.70;60.17
4199;BME280;2113;50.946;14.610;2023-01-28T06:48:18;97818.19;;;1.93;63.16
4199;BME280;2113;50.946;14.610;2023-01-28T06:50:46;97832.22;;;2.30;61.39
4199;BME280;2113;50.946;14.610;2023-01-28T06:53:16;97823.81;;;2.51;60.92
4199;BME280;2113;50.946;14.610;2023-01-28T06:55:45;97826.47;;;2.65;60.36
4199;BME280;2113;50.946;14.610;2023-01-28T06:58:13;97837.34;;;1.45;63.19
4199;BME280;2113;50.946;14.610;2023-01-28T07:00:42;97838.56;;;1.79;62.52
4199;BME280;2113;50.946;14.610;2023-01-28T07:03:12;97834.13;;;2.59;62.04
4199;BME280;2113;50.946;14.610;2023-01-28T07:05:42;97843.09;;;2.03;62.29
4199;BME280;2113;50.946;14.610;2023-01-28T07:08:10;97853.53;;;2.25;62.37
4199;BME280;2113;50.946;14.610;2023-01-28T07:10:39;97846.06;;;1.62;62.26
4199;BME280;2113;50.946;14.610;2023-01-28T07:13:07;97860.28;;;1.35;63.59
4199;BME280;2113;50.946;14.610;2023-01-28T07:15:36;97846.75;;;2.33;61.38
4199;BME280;2113;50.946;14.610;2023-01-28T07:18:05;97850.50;;;2.72;59.91
4199;BME280;2113;50.946;14.610;2023-01-28T07:20:35;97850.16;;;2.29;60.11
4199;BME280;2113;50.946;14.610;2023-01-28T07:23:04;97857.31;;;2.64;59.84
4199;BME280;2113;50.946;14.610;2023-01-28T07:25:34;97851.53;;;1.93;60.57
4199;BME280;2113;50.946;14.610;2023-01-28T07:28:03;97858.81;;;2.37;59.31
4199;BME280;2113;50.946;14.610;2023-01-28T07:30:32;97855.81;;;3.03;58.93
4199;BME280;2113;50.946;14.610;2023-01-28T07:33:01;97858.56;;;2.12;60.25
4199;BME280;2113;50.946;14.610;2023-01-28T07:35:30;97867.28;;;2.33;59.27
4199;BME280;2113;50.946;14.610;2023-01-28T07:38:00;97878.53;;;1.60;61.37
4199;BME280;2113;50.946;14.610;2023-01-28T07:40:28;97863.66;;;2.09;61.47
4199;BME280;2113;50.946;14.610;2023-01-28T07:42:57;97865.69;;;2.46;59.35
4199;BME280;2113;50.946;14.610;2023-01-28T07:45:26;97851.84;;;2.24;59.92
4199;BME280;2113;50.946;14.610;2023-01-28T07:47:57;97864.38;;;1.94;60.43
4199;BME280;2113;50.946;14.610;2023-01-28T07:50:27;97871.41;;;1.37;62.53
4199;BME280;2113;50.946;14.610;2023-01-28T07:52:56;97867.06;;;2.05;60.14
4199;BME280;2113;50.946;14.610;2023-01-28T07:55:26;97865.56;;;2.29;59.12
4199;BME280;2113;50.946;14.610;2023-01-28T07:57:58;97865.41;;;2.13;59.36
4199;BME280;2113;50.946;14.610;2023-01-28T08:00:29;97866.44;;;2.32;58.80
4199;BME280;2113;50.946;14.610;2023-01-28T08:02:59;97883.84;;;1.74;59.89
4199;BME280;2113;50.946;14.610;2023-01-28T08:08:37;97888.06;;;1.70;59.93
4199;BME280;2113;50.946;14.610;2023-01-28T08:11:08;97891.00;;;1.32;61.38
4199;BME280;2113;50.946;14.610;2023-01-28T08:13:37;97884.69;;;1.74;60.11
4199;BME280;2113;50.946;14.610;2023-01-28T08:16:06;97883.75;;;1.69;59.80
4199;BME280;2113;50.946;14.610;2023-01-28T08:18:35;97880.66;;;1.98;59.15
4199;BME280;2113;50.946;14.610;2023-01-28T08:21:03;97877.91;;;2.76;57.43
4199;BME280;2113;50.946;14.610;2023-01-28T08:23:32;97877.66;;;2.42;57.36
4199;BME280;2113;50.946;14.610;2023-01-28T08:26:01;97878.97;;;3.06;56.66
4199;BME280;2113;50.946;14.610;2023-01-28T08:28:31;97881.31;;;2.75;55.84
4199;BME280;2113;50.946;14.610;2023-01-28T08:31:00;97881.28;;;2.66;56.50
4199;BME280;2113;50.946;14.610;2023-01-28T08:33:29;97879.84;;;3.08;55.35
4199;BME280;2113;50.946;14.610;2023-01-28T08:35:57;97879.50;;;2.59;56.38
4199;BME280;2113;50.946;14.610;2023-01-28T08:38:25;97879.16;;;2.19;57.33
4199;BME280;2113;50.946;14.610;2023-01-28T08:40:55;97877.72;;;2.51;57.57
4199;BME280;2113;50.946;14.610;2023-01-28T08:43:25;97883.28;;;2.04;57.75
4199;BME280;2113;50.946;14.610;2023-01-28T08:45:55;97886.56;;;1.92;57.84
4199;BME280;2113;50.946;14.610;2023-01-28T08:48:23;97879.09;;;2.12;58.51
4199;BME280;2113;50.946;14.610;2023-01-28T08:50:51;97882.81;;;2.48;57.20
4199;BME280;2113;50.946;14.610;2023-01-28T08:53:19;97884.50;;;2.46;57.24
4199;BME280;2113;50.946;14.610;2023-01-28T08:55:48;97892.97;;;2.33;57.09
4199;BME280;2113;50.946;14.610;2023-01-28T08:58:17;97895.97;;;2.85;55.71
4199;BME280;2113;50.946;14.610;2023-01-28T09:00:46;97896.81;;;2.84;55.09
4199;BME280;2113;50.946;14.610;2023-01-28T09:03:17;97893.19;;;2.56;55.68
4199;BME280;2113;50.946;14.610;2023-01-28T09:05:45;97903.56;;;1.83;56.94
4199;BME280;2113;50.946;14.610;2023-01-28T09:08:15;97903.31;;;2.42;56.42
4199;BME280;2113;50.946;14.610;2023-01-28T09:10:43;97905.13;;;2.55;56.06
4199;BME280;2113;50.946;14.610;2023-01-28T09:13:14;97912.66;;;2.34;56.43
4199;BME280;2113;50.946;14.610;2023-01-28T09:15:42;97906.44;;;3.14;54.29
4199;BME280;2113;50.946;14.610;2023-01-28T09:18:11;97912.41;;;3.15;53.64
4199;BME280;2113;50.946;14.610;2023-01-28T09:20:41;97915.00;;;2.11;55.35
4199;BME280;2113;50.946;14.610;2023-01-28T09:23:09;97921.16;;;2.28;55.90
4199;BME280;2113;50.946;14.610;2023-01-28T09:25:38;97915.81;;;3.11;54.63
4199;BME280;2113;50.946;14.610;2023-01-28T09:28:06;97924.06;;;2.64;54.50
4199;BME280;2113;50.946;14.610;2023-01-28T09:30:35;97924.44;;;3.16;53.86
4199;BME280;2113;50.946;14.610;2023-01-28T09:33:06;97925.53;;;3.64;52.98
4199;BME280;2113;50.946;14.610;2023-01-28T09:35:35;97931.53;;;2.42;54.47
4199;BME280;2113;50.946;14.610;2023-01-28T09:38:05;97935.59;;;3.20;54.22
4199;BME280;2113;50.946;14.610;2023-01-28T09:40:36;97939.78;;;3.07;54.67
4199;BME280;2113;50.946;14.610;2023-01-28T09:43:29;97937.94;;;2.87;55.20
4199;BME280;2113;50.946;14.610;2023-01-28T09:46:02;97934.13;;;2.42;55.72
4199;BME280;2113;50.946;14.610;2023-01-28T09:48:34;97942.50;;;3.31;53.29
4199;BME280;2113;50.946;14.610;2023-01-28T09:51:08;97943.63;;;3.83;52.84
4199;BME280;2113;50.946;14.610;2023-01-28T09:53:42;97942.53;;;3.38;53.34
4199;BME280;2113;50.946;14.610;2023-01-28T09:56:24;97940.56;;;2.95;54.31
4199;BME280;2113;50.946;14.610;2023-01-28T09:58:55;97950.28;;;3.44;52.10
4199;BME280;2113;50.946;14.610;2023-01-28T10:01:35;97949.25;;;2.18;54.61
4199;BME280;2113;50.946;14.610;2023-01-28T10:04:16;97940.56;;;2.97;53.12
4199;BME280;2113;50.946;14.610;2023-01-28T10:07:02;97942.88;;;4.11;51.37
4199;BME280;2113;50.946;14.610;2023-01-28T10:09:41;97946.03;;;3.44;52.77
4199;BME280;2113;50.946;14.610;2023-01-28T10:12:24;97943.25;;;3.10;52.97
4199;BME280;2113;50.946;14.610;2023-01-28T10:15:16;97956.31;;;3.44;53.05
4199;BME280;2113;50.946;14.610;2023-01-28T10:17:49;97948.75;;;3.73;52.85
4199;BME280;2113;50.946;14.610;2023-01-28T10:20:40;97942.72;;;3.71;51.72
4199;BME280;2113;50.946;14.610;2023-01-28T10:23:14;97944.19;;;3.23;52.27
4199;BME280;2113;50.946;14.610;2023-01-28T10:25:47;97940.00;;;3.44;52.47
4199;BME280;2113;50.946;14.610;2023-01-28T10:28:19;97931.69;;;4.00;51.70
4199;BME280;2113;50.946;14.610;2023-01-28T10:30:49;97946.94;;;3.59;51.15
4199;BME280;2113;50.946;14.610;2023-01-28T10:33:21;97934.94;;;3.56;52.59
4199;BME280;2113;50.946;14.610;2023-01-28T10:35:50;97930.94;;;4.43;50.91
4199;BME280;2113;50.946;14.610;2023-01-28T10:38:21;97925.78;;;4.44;49.59
4199;BME280;2113;50.946;14.610;2023-01-28T10:40:59;97934.84;;;3.44;50.71
4199;BME280;2113;50.946;14.610;2023-01-28T10:43:31;97938.53;;;3.95;50.46
4199;BME280;2113;50.946;14.610;2023-01-28T10:46:04;97941.16;;;2.65;51.93
4199;BME280;2113;50.946;14.610;2023-01-28T10:48:37;97946.19;;;3.77;51.43
4199;BME280;2113;50.946;14.610;2023-01-28T10:51:09;97954.63;;;3.51;51.11
4199;BME280;2113;50.946;14.610;2023-01-28T10:53:38;97948.81;;;3.92;49.66
4199;BME280;2113;50.946;14.610;2023-01-28T10:56:11;97955.84;;;5.04;49.02
4199;BME280;2113;50.946;14.610;2023-01-28T10:58:55;97953.97;;;3.95;48.75
4199;BME280;2113;50.946;14.610;2023-01-28T11:01:38;97963.63;;;2.87;49.58
4199;BME280;2113;50.946;14.610;2023-01-28T11:04:18;97970.50;;;2.91;49.23
4199;BME280;2113;50.946;14.610;2023-01-28T11:06:53;97968.03;;;3.05;49.80
4199;BME280;2113;50.946;14.610;2023-01-28T11:09:26;97970.84;;;3.44;49.14
4199;BME280;2113;50.946;14.610;2023-01-28T11:11:57;97969.72;;;3.03;49.66
4199;BME280;2113;50.946;14.610;2023-01-28T11:14:26;97965.06;;;3.83;48.01
4199;BME280;2113;50.946;14.610;2023-01-28T11:16:56;97971.13;;;3.99;47.61
4199;BME280;2113;50.946;14.610;2023-01-28T11:19:30;97973.81;;;2.78;50.09
4199;BME280;2113;50.946;14.610;2023-01-28T11:22:01;97971.00;;;3.65;50.00
4199;BME280;2113;50.946;14.610;2023-01-28T11:24:32;97971.16;;;4.02;47.70
4199;BME280;2113;50.946;14.610;2023-01-28T11:27:11;97972.97;;;4.34;47.07
4199;BME280;2113;50.946;14.610;2023-01-28T11:29:43;97965.28;;;4.43;46.68
4199;BME280;2113;50.946;14.610;2023-01-28T11:32:16;97955.00;;;4.80;46.04
4199;BME280;2113;50.946;14.610;2023-01-28T11:34:50;97966.66;;;3.57;47.83
4199;BME280;2113;50.946;14.610;2023-01-28T11:37:21;97964.06;;;3.50;48.89
4199;BME280;2113;50.946;14.610;2023-01-28T11:40:00;97967.56;;;3.66;49.07
4199;BME280;2113;50.946;14.610;2023-01-28T11:42:31;97970.75;;;3.25;50.27
4199;BME280;2113;50.946;14.610;2023-01-28T11:44:59;97963.97;;;2.32;51.84
4199;BME280;2113;50.946;14.610;2023-01-28T11:47:52;97956.31;;;2.37;50.84
4199;BME280;2113;50.946;14.610;2023-01-28T11:50:32;97963.75;;;2.12;51.24
4199;BME280;2113;50.946;14.610;2023-01-28T11:53:19;97954.53;;;2.30;49.87
4199;BME280;2113;50.946;14.610;2023-01-28T11:56:04;97956.97;;;3.17;48.68
4199;BME280;2113;50.946;14.610;2023-01-28T11:58:46;97956.31;;;2.37;50.36
4199;BME280;2113;50.946;14.610;2023-01-28T12:01:22;97946.09;;;3.60;48.02
4199;BME280;2113;50.946;14.610;2023-01-28T12:04:17;97960.50;;;3.31;48.79
4199;BME280;2113;50.946;14.610;2023-01-28T12:07:08;97959.13;;;3.92;48.50
4199;BME280;2113;50.946;14.610;2023-01-28T12:09:44;97961.72;;;4.06;46.94
4199;BME280;2113;50.946;14.610;2023-01-28T12:12:42;97956.66;;;4.35;47.07
4199;BME280;2113;50.946;14.610;2023-01-28T12:19:01;97962.41;;;3.66;47.85
4199;BME280;2113;50.946;14.610;2023-01-28T12:21:42;97955.44;;;3.44;47.99
4199;BME280;2113;50.946;14.610;2023-01-28T12:24:22;97967.44;;;3.40;47.78
4199;BME280;2113;50.946;14.610;2023-01-28T12:26:58;97963.13;;;2.35;49.42
4199;BME280;2113;50.946;14.610;2023-01-28T12:29:34;97961.97;;;2.96;49.61
4199;BME280;2113;50.946;14.610;2023-01-28T12:32:15;97958.13;;;2.47;49.36
4199;BME280;2113;50.946;14.610;2023-01-28T12:37:54;97963.44;;;2.69;49.75
4199;BME280;2113;50.946;14.610;2023-01-28T12:40:54;97960.19;;;2.88;49.60
4199;BME280;2113;50.946;14.610;2023-01-28T12:43:36;97949.81;;;2.76;48.38
4199;BME280;2113;50.946;14.610;2023-01-28T12:46:11;97952.34;;;2.73;49.59
4199;BME280;2113;50.946;14.610;2023-01-28T12:48:47;97948.16;;;2.84;49.77
4199;BME280;2113;50.946;14.610;2023-01-28T12:51:21;97941.44;;;2.99;48.71
4199;BME280;2113;50.946;14.610;2023-01-28T12:53:53;97940.16;;;3.73;48.11
4199;BME280;2113;50.946;14.610;2023-01-28T12:56:27;97953.34;;;1.31;50.48
4199;BME280;2113;50.946;14.610;2023-01-28T12:59:00;97946.44;;;2.80;49.36
4199;BME280;2113;50.946;14.610;2023-01-28T13:01:35;97932.28;;;3.39;46.92
4199;BME280;2113;50.946;14.610;2023-01-28T13:04:08;97940.69;;;3.15;47.98
4199;BME280;2113;50.946;14.610;2023-01-28T13:06:43;97943.06;;;2.87;48.59
4199;BME280;2113;50.946;14.610;2023-01-28T13:09:16;97932.28;;;3.39;48.15
4199;BME280;2113;50.946;14.610;2023-01-28T13:11:47;97943.44;;;3.43;47.97
4199;BME280;2113;50.946;14.610;2023-01-28T13:14:17;97941.84;;;3.66;47.46
4199;BME280;2113;50.946;14.610;2023-01-28T13:16:47;97950.28;;;3.41;46.83
4199;BME280;2113;50.946;14.610;2023-01-28T13:19:24;97941.53;;;3.11;47.62
4199;BME280;2113;50.946;14.610;2023-01-28T13:21:54;97947.66;;;2.29;49.43
4199;BME280;2113;50.946;14.610;2023-01-28T13:24:30;97949.56;;;2.45;49.99
4199;BME280;2113;50.946;14.610;2023-01-28T13:27:10;97950.09;;;2.15;50.03
4199;BME280;2113;50.946;14.610;2023-01-28T13:29:40;97946.69;;;2.16;49.91
4199;BME280;2113;50.946;14.610;2023-01-28T13:32:32;97949.06;;;2.88;48.85
4199;BME280;2113;50.946;14.610;2023-01-28T13:35:04;97941.53;;;3.11;47.89
4199;BME280;2113;50.946;14.610;2023-01-28T13:37:37;97948.31;;;2.98;48.61
4199;BME280;2113;50.946;14.610;2023-01-28T13:40:21;97942.22;;;2.87;49.11
4199;BME280;2113;50.946;14.610;2023-01-28T13:42:59;97951.66;;;2.89;48.43
4199;BME280;2113;50.946;14.610;2023-01-28T13:45:28;97950.78;;;2.87;48.29
4199;BME280;2113;50.946;14.610;2023-01-28T13:48:17;97960.34;;;1.45;51.74
4199;BME280;2113;50.946;14.610;2023-01-28T13:50:51;97970.91;;;1.66;50.69
4199;BME280;2113;50.946;14.610;2023-01-28T13:53:30;97978.06;;;1.92;51.46
4199;BME280;2113;50.946;14.610;2023-01-28T13:56:07;97976.03;;;1.66;50.40
4199;BME280;2113;50.946;14.610;2023-01-28T13:59:06;97975.19;;;1.67;51.47
4199;BME280;2113;50.946;14.610;2023-01-28T14:01:56;97971.16;;;2.69;50.09
4199;BME280;2113;50.946;14.610;2023-01-28T14:04:38;97970.56;;;3.01;48.65
4199;BME280;2113;50.946;14.610;2023-01-28T14:07:36;97964.59;;;3.00;48.89
4199;BME280;2113;50.946;14.610;2023-01-28T14:10:20;97980.56;;;2.68;49.36
4199;BME280;2113;50.946;14.610;2023-01-28T14:13:08;97984.31;;;2.17;49.57